sensor_id;sensor_type;location;lat;lon;timestamp;pressure;altitude;pressure_sealevel;temperature;humidity
62779;BME280;48821;48.796;2.396;2022-10-16T07:33:20;101278.56;;;17.11;73.35
62779;BME280;48821;48.796;2.396;2022-10-16T07:34:30;101284.56;;;17.15;73.35
62779;BME280;48821;48.796;2.396;2022-10-16T07:35:51;101286.13;;;17.19;73.04
62779;BME280;48821;48.796;2.396;2022-10-16T07:37:02;101293.03;;;17.23;73.21
62779;BME280;48821;48.796;2.396;2022-10-16T07:38:12;101291.16;;;17.25;73.18
62779;BME280;48821;48.796;2.396;2022-10-16T07:39:23;101290.03;;;17.29;73.03
62779;BME280;48821;48.796;2.396;2022-10-16T07:40:33;101293.47;;;17.31;72.61
62779;BME280;48821;48.796;2.396;2022-10-16T07:41:44;101295.09;;;17.34;72.77
62779;BME280;48821;48.796;2.396;2022-10-16T07:42:54;101285.19;;;17.38;73.06
62779;BME280;48821;48.796;2.396;2022-10-16T07:44:05;101282.34;;;17.41;72.94
62779;BME280;48821;48.796;2.396;2022-10-16T07:45:16;101299.00;;;17.45;72.77
62779;BME280;48821;48.796;2.396;2022-10-16T07:46:28;101304.16;;;17.48;72.89
62779;BME280;48821;48.796;2.396;2022-10-16T07:47:38;101301.41;;;17.49;73.10
62779;BME280;48821;48.796;2.396;2022-10-16T07:48:50;101301.50;;;17.48;73.03
62779;BME280;48821;48.796;2.396;2022-10-16T07:50:01;101306.72;;;17.49;73.20
62779;BME280;48821;48.796;2.396;2022-10-16T07:51:12;101302.25;;;17.50;72.84
62779;BME280;48821;48.796;2.396;2022-10-16T07:52:23;101305.78;;;17.50;72.65
62779;BME280;48821;48.796;2.396;2022-10-16T07:53:33;101310.91;;;17.53;72.83
62779;BME280;48821;48.796;2.396;2022-10-16T07:54:44;101306.41;;;17.56;72.44
62779;BME280;48821;48.796;2.396;2022-10-16T07:56:02;101309.66;;;17.61;72.77
62779;BME280;48821;48.796;2.396;2022-10-16T07:57:12;101305.03;;;17.64;72.45
62779;BME280;48821;48.796;2.396;2022-10-16T07:58:29;101301.34;;;17.67;72.73
62779;BME280;48821;48.796;2.396;2022-10-16T07:59:40;101293.22;;;17.70;72.43
62779;BME280;48821;48.796;2.396;2022-10-16T08:00:50;101298.34;;;17.73;72.38
62779;BME280;48821;48.796;2.396;2022-10-16T08:02:00;101295.53;;;17.76;71.95
62779;BME280;48821;48.796;2.396;2022-10-16T08:03:11;101296.13;;;17.82;72.21
62779;BME280;48821;48.796;2.396;2022-10-16T08:04:21;101310.03;;;17.87;72.17
62779;BME280;48821;48.796;2.396;2022-10-16T08:05:32;101316.91;;;17.91;72.36
62779;BME280;48821;48.796;2.396;2022-10-16T08:06:43;101317.59;;;17.95;72.23
62779;BME280;48821;48.796;2.396;2022-10-16T08:07:54;101324.34;;;18.00;71.57
62779;BME280;48821;48.796;2.396;2022-10-16T08:09:05;101321.53;;;18.04;71.89
62779;BME280;48821;48.796;2.396;2022-10-16T08:10:17;101324.69;;;18.10;71.92
62779;BME280;48821;48.796;2.396;2022-10-16T08:11:28;101334.06;;;18.18;71.25
62779;BME280;48821;48.796;2.396;2022-10-16T08:12:38;101338.31;;;18.22;71.15
62779;BME280;48821;48.796;2.396;2022-10-16T08:13:49;101346.81;;;18.29;71.31
62779;BME280;48821;48.796;2.396;2022-10-16T08:14:59;101341.06;;;18.37;71.25
62779;BME280;48821;48.796;2.396;2022-10-16T08:16:09;101341.72;;;18.40;71.52
62779;BME280;48821;48.796;2.396;2022-10-16T08:17:20;101333.31;;;18.48;70.41
62779;BME280;48821;48.796;2.396;2022-10-16T08:18:30;101333.91;;;18.53;70.57
62779;BME280;48821;48.796;2.396;2022-10-16T08:19:44;101338.03;;;18.59;70.43
62779;BME280;48821;48.796;2.396;2022-10-16T08:20:57;101330.59;;;18.64;70.25
62779;BME280;48821;48.796;2.396;2022-10-16T08:22:07;101336.50;;;18.70;70.56
62779;BME280;48821;48.796;2.396;2022-10-16T08:23:18;101333.59;;;18.74;69.88
62779;BME280;48821;48.796;2.396;2022-10-16T08:24:28;101330.75;;;18.77;69.29
62779;BME280;48821;48.796;2.396;2022-10-16T08:25:41;101327.63;;;18.85;69.08
62779;BME280;48821;48.796;2.396;2022-10-16T08:26:53;101323.84;;;18.89;68.78
62779;BME280;48821;48.796;2.396;2022-10-16T08:28:06;101318.16;;;18.96;68.39
62779;BME280;48821;48.796;2.396;2022-10-16T08:29:17;101325.88;;;19.00;68.09
62779;BME280;48821;48.796;2.396;2022-10-16T08:30:27;101329.13;;;19.06;68.13
62779;BME280;48821;48.796;2.396;2022-10-16T08:31:37;101331.50;;;19.10;68.30
62779;BME280;48821;48.796;2.396;2022-10-16T08:32:48;101337.44;;;19.16;68.05
62779;BME280;48821;48.796;2.396;2022-10-16T08:33:58;101338.97;;;19.20;67.51
62779;BME280;48821;48.796;2.396;2022-10-16T08:35:10;101342.22;;;19.25;67.50
62779;BME280;48821;48.796;2.396;2022-10-16T08:36:20;101339.28;;;19.30;67.00
62779;BME280;48821;48.796;2.396;2022-10-16T08:37:32;101342.41;;;19.37;68.01
62779;BME280;48821;48.796;2.396;2022-10-16T08:38:43;101343.09;;;19.40;67.75
62779;BME280;48821;48.796;2.396;2022-10-16T08:39:53;101337.56;;;19.43;67.10
62779;BME280;48821;48.796;2.396;2022-10-16T08:46:53;101338.41;;;19.59;67.08
62779;BME280;48821;48.796;2.396;2022-10-16T08:49:43;101339.19;;;19.61;65.96
62779;BME280;48821;48.796;2.396;2022-10-16T08:50:56;101331.28;;;19.59;65.97
62779;BME280;48821;48.796;2.396;2022-10-16T08:52:12;101341.84;;;19.61;66.03
62779;BME280;48821;48.796;2.396;2022-10-16T08:54:45;101338.25;;;19.62;66.33
62779;BME280;48821;48.796;2.396;2022-10-16T08:55:45;101343.47;;;19.63;66.75
62779;BME280;48821;48.796;2.396;2022-10-16T08:57:04;101344.25;;;19.65;66.13
62779;BME280;48821;48.796;2.396;2022-10-16T08:58:20;101342.34;;;19.67;65.71
62779;BME280;48821;48.796;2.396;2022-10-16T08:59:31;101336.91;;;19.69;65.67
62779;BME280;48821;48.796;2.396;2022-10-16T09:00:42;101338.63;;;19.70;65.76
62779;BME280;48821;48.796;2.396;2022-10-16T09:01:53;101343.84;;;19.72;66.13
62779;BME280;48821;48.796;2.396;2022-10-16T09:07:41;101347.38;;;19.72;65.49
62779;BME280;48821;48.796;2.396;2022-10-16T09:09:18;101356.31;;;19.71;65.60
62779;BME280;48821;48.796;2.396;2022-10-16T09:12:04;101352.91;;;19.69;65.14
62779;BME280;48821;48.796;2.396;2022-10-16T09:13:25;101357.38;;;19.68;65.23
62779;BME280;48821;48.796;2.396;2022-10-16T09:16:22;101355.69;;;19.67;65.13
62779;BME280;48821;48.796;2.396;2022-10-16T09:17:40;101361.09;;;19.66;65.77
62779;BME280;48821;48.796;2.396;2022-10-16T09:19:24;101357.78;;;19.62;65.45
62779;BME280;48821;48.796;2.396;2022-10-16T09:20:58;101357.94;;;19.59;65.50
62779;BME280;48821;48.796;2.396;2022-10-16T09:22:14;101346.63;;;19.55;65.66
62779;BME280;48821;48.796;2.396;2022-10-16T09:23:30;101341.47;;;19.52;65.54
62779;BME280;48821;48.796;2.396;2022-10-16T09:24:41;101343.47;;;19.49;65.58
62779;BME280;48821;48.796;2.396;2022-10-16T09:25:52;101338.25;;;19.47;65.54
62779;BME280;48821;48.796;2.396;2022-10-16T09:27:04;101333.19;;;19.42;65.55
62779;BME280;48821;48.796;2.396;2022-10-16T09:28:15;101343.00;;;19.42;65.76
62779;BME280;48821;48.796;2.396;2022-10-16T09:29:25;101345.84;;;19.39;65.63
62779;BME280;48821;48.796;2.396;2022-10-16T09:30:37;101343.38;;;19.36;65.79
62779;BME280;48821;48.796;2.396;2022-10-16T09:31:48;101344.31;;;19.34;65.67
62779;BME280;48821;48.796;2.396;2022-10-16T09:32:58;101340.03;;;19.32;65.74
62779;BME280;48821;48.796;2.396;2022-10-16T09:34:32;101341.94;;;19.30;65.50
62779;BME280;48821;48.796;2.396;2022-10-16T09:35:47;101342.88;;;19.29;65.79
62779;BME280;48821;48.796;2.396;2022-10-16T09:37:01;101349.00;;;19.31;65.45
62779;BME280;48821;48.796;2.396;2022-10-16T09:39:52;101346.69;;;19.39;65.43
62779;BME280;48821;48.796;2.396;2022-10-16T09:41:15;101346.63;;;19.41;65.45
62779;BME280;48821;48.796;2.396;2022-10-16T09:42:33;101352.50;;;19.46;65.43
62779;BME280;48821;48.796;2.396;2022-10-16T09:43:55;101356.78;;;19.49;64.87
62779;BME280;48821;48.796;2.396;2022-10-16T09:45:20;101357.66;;;19.49;64.95
62779;BME280;48821;48.796;2.396;2022-10-16T09:46:35;101362.81;;;19.52;65.07
62779;BME280;48821;48.796;2.396;2022-10-16T09:47:46;101361.78;;;19.55;65.33
62779;BME280;48821;48.796;2.396;2022-10-16T09:49:01;101355.38;;;19.58;65.28
62779;BME280;48821;48.796;2.396;2022-10-16T09:50:30;101361.31;;;19.63;64.74
62779;BME280;48821;48.796;2.396;2022-10-16T09:51:41;101363.56;;;19.69;64.70
62779;BME280;48821;48.796;2.396;2022-10-16T09:53:05;101365.94;;;19.74;64.85
62779;BME280;48821;48.796;2.396;2022-10-16T09:54:18;101365.47;;;19.82;64.42
62779;BME280;48821;48.796;2.396;2022-10-16T09:55:29;101365.19;;;19.86;64.01
62779;BME280;48821;48.796;2.396;2022-10-16T09:56:39;101359.47;;;19.93;64.21
62779;BME280;48821;48.796;2.396;2022-10-16T09:57:54;101359.19;;;19.97;64.27
62779;BME280;48821;48.796;2.396;2022-10-16T09:59:21;101355.25;;;20.03;63.52
62779;BME280;48821;48.796;2.396;2022-10-16T10:00:33;101351.44;;;20.07;63.72
62779;BME280;48821;48.796;2.396;2022-10-16T10:02:59;101348.53;;;20.12;63.76
62779;BME280;48821;48.796;2.396;2022-10-16T10:04:10;101344.56;;;20.18;63.74
62779;BME280;48821;48.796;2.396;2022-10-16T10:05:24;101340.78;;;20.22;63.78
62779;BME280;48821;48.796;2.396;2022-10-16T10:06:47;101333.41;;;20.26;63.51
62779;BME280;48821;48.796;2.396;2022-10-16T10:08:00;101322.44;;;20.30;63.72
62779;BME280;48821;48.796;2.396;2022-10-16T10:10:31;101315.84;;;20.36;63.29
62779;BME280;48821;48.796;2.396;2022-10-16T10:12:55;101307.41;;;20.42;63.14
62779;BME280;48821;48.796;2.396;2022-10-16T10:15:33;101315.03;;;20.49;63.46
62779;BME280;48821;48.796;2.396;2022-10-16T10:16:44;101307.88;;;20.49;63.73
62779;BME280;48821;48.796;2.396;2022-10-16T10:17:57;101314.84;;;20.52;63.36
62779;BME280;48821;48.796;2.396;2022-10-16T10:19:16;101316.66;;;20.51;62.85
62779;BME280;48821;48.796;2.396;2022-10-16T10:20:32;101311.19;;;20.53;63.51
62779;BME280;48821;48.796;2.396;2022-10-16T10:21:45;101310.25;;;20.54;63.35
62779;BME280;48821;48.796;2.396;2022-10-16T10:22:56;101311.94;;;20.55;63.38
62779;BME280;48821;48.796;2.396;2022-10-16T10:24:11;101317.19;;;20.56;63.14
62779;BME280;48821;48.796;2.396;2022-10-16T10:26:34;101309.28;;;20.55;62.57
62779;BME280;48821;48.796;2.396;2022-10-16T10:29:04;101324.16;;;20.59;62.93
62779;BME280;48821;48.796;2.396;2022-10-16T10:30:25;101321.47;;;20.59;62.41
62779;BME280;48821;48.796;2.396;2022-10-16T10:32:11;101326.72;;;20.61;62.91
62779;BME280;48821;48.796;2.396;2022-10-16T10:35:20;101316.66;;;20.64;62.49
62779;BME280;48821;48.796;2.396;2022-10-16T10:36:35;101323.53;;;20.68;62.85
62779;BME280;48821;48.796;2.396;2022-10-16T10:39:25;101320.53;;;20.73;63.05
62779;BME280;48821;48.796;2.396;2022-10-16T10:40:46;101321.19;;;20.77;62.70
62779;BME280;48821;48.796;2.396;2022-10-16T10:43:37;101322.78;;;20.79;62.48
62779;BME280;48821;48.796;2.396;2022-10-16T10:46:32;101332.88;;;20.89;62.49
62779;BME280;48821;48.796;2.396;2022-10-16T10:48:02;101329.03;;;20.93;62.35
62779;BME280;48821;48.796;2.396;2022-10-16T10:50:49;101327.75;;;20.99;62.40
62779;BME280;48821;48.796;2.396;2022-10-16T10:53:39;101325.63;;;21.04;62.06
62779;BME280;48821;48.796;2.396;2022-10-16T10:57:48;101314.19;;;21.02;62.22
62779;BME280;48821;48.796;2.396;2022-10-16T10:59:37;101328.22;;;21.06;61.49
62779;BME280;48821;48.796;2.396;2022-10-16T11:07:50;101311.72;;;20.99;61.35
62779;BME280;48821;48.796;2.396;2022-10-16T11:09:28;101304.66;;;20.98;61.93
62779;BME280;48821;48.796;2.396;2022-10-16T11:10:57;101316.09;;;21.00;62.38
62779;BME280;48821;48.796;2.396;2022-10-16T11:12:24;101308.28;;;20.97;62.55
62779;BME280;48821;48.796;2.396;2022-10-16T11:13:58;101292.47;;;20.94;61.18
62779;BME280;48821;48.796;2.396;2022-10-16T11:15:23;101306.59;;;20.96;61.65
62779;BME280;48821;48.796;2.396;2022-10-16T11:17:24;101300.19;;;20.98;61.70
62779;BME280;48821;48.796;2.396;2022-10-16T11:18:16;101305.53;;;20.98;60.74
62779;BME280;48821;48.796;2.396;2022-10-16T11:19:48;101297.31;;;21.01;60.91
62779;BME280;48821;48.796;2.396;2022-10-16T11:21:06;101287.47;;;21.02;61.26
62779;BME280;48821;48.796;2.396;2022-10-16T11:22:29;101289.09;;;21.05;61.22
62779;BME280;48821;48.796;2.396;2022-10-16T11:23:48;101289.94;;;21.05;61.06
62779;BME280;48821;48.796;2.396;2022-10-16T11:26:30;101285.34;;;21.07;60.57
62779;BME280;48821;48.796;2.396;2022-10-16T11:27:52;101290.69;;;21.07;60.84
62779;BME280;48821;48.796;2.396;2022-10-16T11:29:10;101290.69;;;21.07;60.96
62779;BME280;48821;48.796;2.396;2022-10-16T11:30:28;101277.53;;;21.04;60.62
62779;BME280;48821;48.796;2.396;2022-10-16T11:31:44;101289.75;;;21.08;60.67
62779;BME280;48821;48.796;2.396;2022-10-16T11:34:50;101291.56;;;21.08;60.77
62779;BME280;48821;48.796;2.396;2022-10-16T11:37:19;101293.91;;;21.12;60.79
62779;BME280;48821;48.796;2.396;2022-10-16T11:39:49;101283.97;;;21.14;60.58
62779;BME280;48821;48.796;2.396;2022-10-16T11:41:21;101290.03;;;21.17;60.03
62779;BME280;48821;48.796;2.396;2022-10-16T11:42:37;101282.78;;;21.19;60.54
62779;BME280;48821;48.796;2.396;2022-10-16T11:44:03;101289.84;;;21.20;60.31
62779;BME280;48821;48.796;2.396;2022-10-16T11:45:31;101285.97;;;21.24;60.78
62779;BME280;48821;48.796;2.396;2022-10-16T11:46:51;101284.06;;;21.26;60.16
62779;BME280;48821;48.796;2.396;2022-10-16T11:48:08;101281.16;;;21.29;59.83
62779;BME280;48821;48.796;2.396;2022-10-16T11:49:24;101272.19;;;21.30;60.27
62779;BME280;48821;48.796;2.396;2022-10-16T11:50:56;101275.63;;;21.32;59.87
62779;BME280;48821;48.796;2.396;2022-10-16T11:52:23;101272.09;;;21.32;59.82
62779;BME280;48821;48.796;2.396;2022-10-16T11:53:51;101275.72;;;21.31;59.75
62779;BME280;48821;48.796;2.396;2022-10-16T11:56:21;101263.31;;;21.30;59.51
62779;BME280;48821;48.796;2.396;2022-10-16T11:57:39;101261.84;;;21.25;59.83
62779;BME280;48821;48.796;2.396;2022-10-16T11:59:02;101257.56;;;21.23;59.90
62779;BME280;48821;48.796;2.396;2022-10-16T12:02:57;101257.16;;;21.16;60.26
62779;BME280;48821;48.796;2.396;2022-10-16T12:04:30;101254.69;;;21.13;59.89
62779;BME280;48821;48.796;2.396;2022-10-16T12:07:17;101251.16;;;21.12;60.17
62779;BME280;48821;48.796;2.396;2022-10-16T12:08:29;101243.25;;;21.11;60.04
62779;BME280;48821;48.796;2.396;2022-10-16T12:09:41;101240.44;;;21.12;60.83
62779;BME280;48821;48.796;2.396;2022-10-16T12:10:51;101243.13;;;21.12;60.58
62779;BME280;48821;48.796;2.396;2022-10-16T12:12:03;101244.84;;;21.13;60.05
62779;BME280;48821;48.796;2.396;2022-10-16T12:13:36;101235.75;;;21.16;60.06
62779;BME280;48821;48.796;2.396;2022-10-16T12:14:47;101243.88;;;21.14;59.92
62779;BME280;48821;48.796;2.396;2022-10-16T12:17:26;101240.25;;;21.16;59.81
62779;BME280;48821;48.796;2.396;2022-10-16T12:18:38;101245.59;;;21.16;59.89
62779;BME280;48821;48.796;2.396;2022-10-16T12:20:53;101237.66;;;21.14;59.42
62779;BME280;48821;48.796;2.396;2022-10-16T12:21:31;101240.44;;;21.12;60.60
62779;BME280;48821;48.796;2.396;2022-10-16T12:24:00;101233.28;;;21.13;59.60
62779;BME280;48821;48.796;2.396;2022-10-16T12:25:30;101241.19;;;21.14;61.20
62779;BME280;48821;48.796;2.396;2022-10-16T12:26:52;101241.31;;;21.13;60.90
62779;BME280;48821;48.796;2.396;2022-10-16T12:28:19;101239.38;;;21.15;60.15
62779;BME280;48821;48.796;2.396;2022-10-16T12:29:41;101236.59;;;21.17;59.67
62779;BME280;48821;48.796;2.396;2022-10-16T12:31:02;101236.59;;;21.17;59.91
62779;BME280;48821;48.796;2.396;2022-10-16T12:32:40;101238.31;;;21.18;60.46
62779;BME280;48821;48.796;2.396;2022-10-16T12:34:03;101232.84;;;21.19;60.00
62779;BME280;48821;48.796;2.396;2022-10-16T12:35:22;101232.00;;;21.19;60.20
62779;BME280;48821;48.796;2.396;2022-10-16T12:36:34;101231.91;;;21.20;59.93
62779;BME280;48821;48.796;2.396;2022-10-16T12:37:45;101229.31;;;21.19;59.94
62779;BME280;48821;48.796;2.396;2022-10-16T12:38:56;101233.59;;;21.21;59.35
62779;BME280;48821;48.796;2.396;2022-10-16T12:40:36;101226.34;;;21.23;59.42
62779;BME280;48821;48.796;2.396;2022-10-16T12:41:47;101226.34;;;21.23;59.53
62779;BME280;48821;48.796;2.396;2022-10-16T12:42:58;101231.56;;;21.25;60.34
62779;BME280;48821;48.796;2.396;2022-10-16T12:44:24;101229.75;;;21.25;60.17
62779;BME280;48821;48.796;2.396;2022-10-16T12:45:36;101226.00;;;21.28;60.04
62779;BME280;48821;48.796;2.396;2022-10-16T12:46:46;101230.38;;;21.29;61.07
62779;BME280;48821;48.796;2.396;2022-10-16T12:47:58;101226.53;;;21.33;59.79
62779;BME280;48821;48.796;2.396;2022-10-16T12:50:38;101231.66;;;21.36;59.94
62779;BME280;48821;48.796;2.396;2022-10-16T12:51:48;101217.53;;;21.34;60.20
62779;BME280;48821;48.796;2.396;2022-10-16T12:53:00;101219.25;;;21.35;60.40
62779;BME280;48821;48.796;2.396;2022-10-16T12:55:22;101214.75;;;21.36;60.09
62779;BME280;48821;48.796;2.396;2022-10-16T13:00:45;101208.75;;;21.45;59.54
62779;BME280;48821;48.796;2.396;2022-10-16T13:03:34;101208.31;;;21.52;59.74
62779;BME280;48821;48.796;2.396;2022-10-16T13:05:18;101197.59;;;21.52;59.13
62779;BME280;48821;48.796;2.396;2022-10-16T13:06:41;101195.66;;;21.54;59.09
62779;BME280;48821;48.796;2.396;2022-10-16T13:16:40;101203.34;;;21.58;59.40
62779;BME280;48821;48.796;2.396;2022-10-16T13:18:16;101196.31;;;21.57;59.56
62779;BME280;48821;48.796;2.396;2022-10-16T13:19:38;101194.59;;;21.56;59.72
62779;BME280;48821;48.796;2.396;2022-10-16T13:26:52;101189.91;;;21.47;60.33
62779;BME280;48821;48.796;2.396;2022-10-16T13:28:10;101183.97;;;21.43;59.83
62779;BME280;48821;48.796;2.396;2022-10-16T13:29:21;101186.84;;;21.40;61.72
62779;BME280;48821;48.796;2.396;2022-10-16T13:30:41;101183.53;;;21.36;60.77
62779;BME280;48821;48.796;2.396;2022-10-16T13:31:51;101175.75;;;21.33;61.13
62779;BME280;48821;48.796;2.396;2022-10-16T13:33:06;101168.03;;;21.29;60.27
62779;BME280;48821;48.796;2.396;2022-10-16T13:34:20;101170.84;;;21.27;61.50
62779;BME280;48821;48.796;2.396;2022-10-16T13:35:34;101179.94;;;21.24;60.42
62779;BME280;48821;48.796;2.396;2022-10-16T13:36:48;101181.84;;;21.22;59.98
62779;BME280;48821;48.796;2.396;2022-10-16T13:38:13;101176.84;;;21.18;60.51
62779;BME280;48821;48.796;2.396;2022-10-16T13:39:29;101180.72;;;21.13;60.64
62779;BME280;48821;48.796;2.396;2022-10-16T13:43:39;101178.66;;;21.04;62.08
62779;BME280;48821;48.796;2.396;2022-10-16T13:44:53;101169.81;;;21.04;61.31
62779;BME280;48821;48.796;2.396;2022-10-16T13:46:19;101171.41;;;21.06;62.08
62779;BME280;48821;48.796;2.396;2022-10-16T13:47:30;101180.28;;;21.07;60.38
62779;BME280;48821;48.796;2.396;2022-10-16T13:48:41;101177.50;;;21.08;60.79
62779;BME280;48821;48.796;2.396;2022-10-16T13:50:06;101176.66;;;21.08;60.25
62779;BME280;48821;48.796;2.396;2022-10-16T13:51:19;101170.31;;;21.09;62.36
62779;BME280;48821;48.796;2.396;2022-10-16T13:52:29;101176.53;;;21.09;61.07
62779;BME280;48821;48.796;2.396;2022-10-16T13:53:40;101176.53;;;21.09;61.41
62779;BME280;48821;48.796;2.396;2022-10-16T13:54:51;101180.81;;;21.12;60.92
62779;BME280;48821;48.796;2.396;2022-10-16T13:56:04;101179.72;;;21.14;61.25
62779;BME280;48821;48.796;2.396;2022-10-16T13:57:16;101181.44;;;21.16;62.41
62779;BME280;48821;48.796;2.396;2022-10-16T13:58:26;101178.78;;;21.16;60.83
62779;BME280;48821;48.796;2.396;2022-10-16T13:59:37;101172.44;;;21.17;60.23
62779;BME280;48821;48.796;2.396;2022-10-16T14:01:02;101176.09;;;21.16;60.37
62779;BME280;48821;48.796;2.396;2022-10-16T14:02:26;101174.38;;;21.14;62.62
62779;BME280;48821;48.796;2.396;2022-10-16T14:03:38;101173.44;;;21.16;61.21
62779;BME280;48821;48.796;2.396;2022-10-16T14:04:49;101169.03;;;21.14;60.62
62779;BME280;48821;48.796;2.396;2022-10-16T14:06:02;101176.97;;;21.16;60.89
62779;BME280;48821;48.796;2.396;2022-10-16T14:07:18;101185.06;;;21.14;60.89
62779;BME280;48821;48.796;2.396;2022-10-16T14:08:30;101184.00;;;21.17;61.30
62779;BME280;48821;48.796;2.396;2022-10-16T14:09:41;101180.47;;;21.17;61.72
62779;BME280;48821;48.796;2.396;2022-10-16T14:11:01;101183.88;;;21.19;60.43
62779;BME280;48821;48.796;2.396;2022-10-16T14:12:12;101175.03;;;21.18;60.90
62779;BME280;48821;48.796;2.396;2022-10-16T14:13:30;101178.44;;;21.20;61.21
62779;BME280;48821;48.796;2.396;2022-10-16T14:14:44;101184.66;;;21.21;61.06
62779;BME280;48821;48.796;2.396;2022-10-16T14:15:55;101178.31;;;21.22;60.77
62779;BME280;48821;48.796;2.396;2022-10-16T14:17:31;101177.25;;;21.24;61.32
62779;BME280;48821;48.796;2.396;2022-10-16T14:18:46;101174.47;;;21.26;61.34
62779;BME280;48821;48.796;2.396;2022-10-16T14:20:03;101180.56;;;21.28;60.78
62779;BME280;48821;48.796;2.396;2022-10-16T14:21:15;101178.72;;;21.29;60.49
62779;BME280;48821;48.796;2.396;2022-10-16T14:22:30;101178.63;;;21.30;60.50
62779;BME280;48821;48.796;2.396;2022-10-16T14:23:42;101184.84;;;21.31;60.68
62779;BME280;48821;48.796;2.396;2022-10-16T14:24:53;101180.31;;;21.31;61.75
62779;BME280;48821;48.796;2.396;2022-10-16T14:27:33;101175.41;;;21.38;61.26
62779;BME280;48821;48.796;2.396;2022-10-16T14:28:44;101172.63;;;21.40;62.24
62779;BME280;48821;48.796;2.396;2022-10-16T14:31:32;101174.75;;;21.47;60.14
62779;BME280;48821;48.796;2.396;2022-10-16T14:32:54;101171.19;;;21.47;59.76
62779;BME280;48821;48.796;2.396;2022-10-16T14:34:04;101174.84;;;21.46;61.24
62779;BME280;48821;48.796;2.396;2022-10-16T14:35:29;101172.16;;;21.46;60.55
62779;BME280;48821;48.796;2.396;2022-10-16T14:36:40;101178.50;;;21.45;60.08
62779;BME280;48821;48.796;2.396;2022-10-16T14:37:55;101174.94;;;21.44;60.54
62779;BME280;48821;48.796;2.396;2022-10-16T14:39:18;101179.56;;;21.42;61.73
62779;BME280;48821;48.796;2.396;2022-10-16T14:40:35;101167.06;;;21.43;60.72
62779;BME280;48821;48.796;2.396;2022-10-16T14:41:48;101174.09;;;21.44;60.80
62779;BME280;48821;48.796;2.396;2022-10-16T14:43:01;101178.50;;;21.45;60.53
62779;BME280;48821;48.796;2.396;2022-10-16T14:44:12;101181.28;;;21.43;60.57
62779;BME280;48821;48.796;2.396;2022-10-16T14:45:28;101182.25;;;21.42;62.17
62779;BME280;48821;48.796;2.396;2022-10-16T14:46:41;101180.19;;;21.46;61.35
62779;BME280;48821;48.796;2.396;2022-10-16T14:47:55;101182.84;;;21.46;61.89
62779;BME280;48821;48.796;2.396;2022-10-16T14:50:19;101185.22;;;21.51;61.36
62779;BME280;48821;48.796;2.396;2022-10-16T14:51:30;101186.03;;;21.51;60.98
62779;BME280;48821;48.796;2.396;2022-10-16T14:52:40;101184.25;;;21.52;61.04
62779;BME280;48821;48.796;2.396;2022-10-16T14:53:53;101184.13;;;21.53;61.39
62779;BME280;48821;48.796;2.396;2022-10-16T14:55:03;101186.69;;;21.55;60.90
62779;BME280;48821;48.796;2.396;2022-10-16T14:56:23;101184.13;;;21.53;60.41
62779;BME280;48821;48.796;2.396;2022-10-16T14:57:35;101191.41;;;21.51;60.78
62779;BME280;48821;48.796;2.396;2022-10-16T14:58:48;101177.41;;;21.47;61.11
62779;BME280;48821;48.796;2.396;2022-10-16T14:59:59;101186.38;;;21.46;60.73
62779;BME280;48821;48.796;2.396;2022-10-16T15:01:10;101176.69;;;21.45;60.45
62779;BME280;48821;48.796;2.396;2022-10-16T15:02:36;101175.06;;;21.43;60.10
62779;BME280;48821;48.796;2.396;2022-10-16T15:03:47;101175.16;;;21.41;60.54
62779;BME280;48821;48.796;2.396;2022-10-16T15:04:58;101178.91;;;21.39;61.97
62779;BME280;48821;48.796;2.396;2022-10-16T15:06:15;101178.19;;;21.36;62.13
62779;BME280;48821;48.796;2.396;2022-10-16T15:07:26;101171.16;;;21.35;61.04
62779;BME280;48821;48.796;2.396;2022-10-16T15:08:36;101178.19;;;21.36;60.85
62779;BME280;48821;48.796;2.396;2022-10-16T15:09:46;101174.78;;;21.34;60.68
62779;BME280;48821;48.796;2.396;2022-10-16T15:10:57;101167.72;;;21.33;61.30
62779;BME280;48821;48.796;2.396;2022-10-16T15:12:07;101164.06;;;21.34;63.38
62779;BME280;48821;48.796;2.396;2022-10-16T15:13:18;101165.88;;;21.34;62.08
62779;BME280;48821;48.796;2.396;2022-10-16T15:14:28;101160.44;;;21.35;60.57
62779;BME280;48821;48.796;2.396;2022-10-16T15:15:43;101165.78;;;21.35;60.92
62779;BME280;48821;48.796;2.396;2022-10-16T15:16:54;101160.53;;;21.34;61.15
62779;BME280;48821;48.796;2.396;2022-10-16T15:18:04;101160.66;;;21.32;62.14
62779;BME280;48821;48.796;2.396;2022-10-16T15:19:15;101158.94;;;21.31;61.07
62779;BME280;48821;48.796;2.396;2022-10-16T15:20:31;101159.81;;;21.32;60.54
62779;BME280;48821;48.796;2.396;2022-10-16T15:21:43;101158.13;;;21.31;61.44
62779;BME280;48821;48.796;2.396;2022-10-16T15:22:54;101168.03;;;21.29;62.49
62779;BME280;48821;48.796;2.396;2022-10-16T15:24:08;101166.34;;;21.28;63.08
62779;BME280;48821;48.796;2.396;2022-10-16T15:26:38;101161.09;;;21.26;61.80
62779;BME280;48821;48.796;2.396;2022-10-16T15:27:49;101147.84;;;21.24;62.19
62779;BME280;48821;48.796;2.396;2022-10-16T15:28:59;101146.25;;;21.22;61.09
62779;BME280;48821;48.796;2.396;2022-10-16T15:30:10;101149.03;;;21.20;61.56
62779;BME280;48821;48.796;2.396;2022-10-16T15:31:21;101145.50;;;21.20;61.49
62779;BME280;48821;48.796;2.396;2022-10-16T15:32:32;101140.28;;;21.18;61.27
62779;BME280;48821;48.796;2.396;2022-10-16T15:33:42;101150.97;;;21.18;61.40
62779;BME280;48821;48.796;2.396;2022-10-16T15:34:53;101148.31;;;21.18;61.03
62779;BME280;48821;48.796;2.396;2022-10-16T15:36:04;101146.47;;;21.19;60.81
62779;BME280;48821;48.796;2.396;2022-10-16T15:37:14;101155.47;;;21.18;61.27
62779;BME280;48821;48.796;2.396;2022-10-16T15:38:26;101151.06;;;21.17;61.48
62779;BME280;48821;48.796;2.396;2022-10-16T15:39:37;101149.38;;;21.16;60.98